Terminal Aerodrome Forecast
Issued by NWS Tuscon, AZ

Home | Current Version | Previous Version | Text Only | Print | Product List | Glossary On
Versions: 1 2 3 4 5 6 7 8 9 10 11 12
000
FTUS45 KTWC 030500
TAFDUG
TAF
KDUG 030520Z 0306/0406 VRB05KT P6SM SCT200
     FM031700 06004KT P6SM FEW090
     FM040400 35008KT P6SM SCT110=

USA.gov is the U.S. government's official web portal to all federal, state and local government web resources and services.